createdAt,value
2018-05-25T00:01:53.660Z,17.40
2018-05-25T00:04:21.634Z,17.40
2018-05-25T00:06:49.569Z,17.61
2018-05-25T00:09:17.475Z,17.81
2018-05-25T00:11:45.385Z,17.67
2018-05-25T00:14:13.317Z,17.49
2018-05-25T00:16:41.210Z,17.50
2018-05-25T00:19:09.133Z,17.58
2018-05-25T00:21:37.044Z,17.28
2018-05-25T00:24:04.959Z,17.28
2018-05-25T00:26:32.875Z,17.29
2018-05-25T00:29:00.808Z,17.23
2018-05-25T00:31:28.716Z,17.13
2018-05-25T00:33:56.644Z,17.31
2018-05-25T00:36:24.555Z,17.46
2018-05-25T00:38:52.496Z,17.50
2018-05-25T00:41:20.419Z,17.38
2018-05-25T00:43:48.336Z,17.48
2018-05-25T00:46:16.263Z,17.51
2018-05-25T00:48:44.160Z,17.53
2018-05-25T00:51:12.101Z,17.33
2018-05-25T00:53:40.013Z,17.16
2018-05-25T00:56:07.917Z,17.09
2018-05-25T00:58:35.831Z,16.77
2018-05-25T01:01:03.775Z,16.64
2018-05-25T01:03:31.679Z,16.56
2018-05-25T01:05:59.596Z,16.71
2018-05-25T01:08:27.591Z,16.47
2018-05-25T01:10:55.496Z,16.42
2018-05-25T01:13:23.403Z,16.27
2018-05-25T01:15:51.327Z,16.39
2018-05-25T01:18:19.264Z,16.35
2018-05-25T01:20:47.176Z,16.35
2018-05-25T01:23:15.083Z,16.28
2018-05-25T01:25:43.021Z,16.28
2018-05-25T01:28:10.923Z,16.14
2018-05-25T01:30:38.845Z,16.36
2018-05-25T01:33:06.745Z,16.07
2018-05-25T01:35:34.682Z,15.99
2018-05-25T01:38:02.583Z,16.01
2018-05-25T01:40:30.484Z,16.02
2018-05-25T01:42:58.419Z,16.05
2018-05-25T01:45:26.319Z,16.01
2018-05-25T01:47:54.239Z,15.96
2018-05-25T01:50:22.148Z,16.02
2018-05-25T01:52:50.060Z,15.98
2018-05-25T01:55:17.974Z,15.99
2018-05-25T01:57:45.888Z,16.00
2018-05-25T02:00:13.842Z,15.93
2018-05-25T02:02:41.751Z,15.91
2018-05-25T02:05:09.678Z,15.98
2018-05-25T02:07:37.576Z,15.87
2018-05-25T02:10:05.488Z,15.85
2018-05-25T02:12:33.405Z,15.87
2018-05-25T02:15:01.328Z,15.74
2018-05-25T02:17:29.251Z,15.69
2018-05-25T02:19:57.165Z,15.70
2018-05-25T02:22:25.078Z,15.75
2018-05-25T02:24:53.001Z,15.86
2018-05-25T02:27:20.979Z,15.69
2018-05-25T02:29:48.917Z,15.59
2018-05-25T02:32:16.840Z,15.57
2018-05-25T02:34:44.755Z,15.48
2018-05-25T02:37:12.660Z,15.55
2018-05-25T02:39:40.586Z,15.66
2018-05-25T02:42:08.558Z,15.62
2018-05-25T02:44:36.463Z,15.55
2018-05-25T02:47:04.373Z,15.54
2018-05-25T02:49:32.293Z,15.51
2018-05-25T02:52:00.197Z,15.61
2018-05-25T02:54:28.131Z,15.48
2018-05-25T02:56:56.019Z,15.42
2018-05-25T02:59:23.937Z,15.54
2018-05-25T03:01:51.855Z,15.42
2018-05-25T03:04:19.776Z,15.51
2018-05-25T03:06:47.800Z,15.61
2018-05-25T03:09:15.718Z,15.55
2018-05-25T03:11:43.636Z,15.63
2018-05-25T03:14:11.566Z,15.59
2018-05-25T03:16:39.493Z,15.44
2018-05-25T03:19:07.384Z,15.49
2018-05-25T03:21:35.428Z,15.59
2018-05-25T03:24:03.346Z,15.70
2018-05-25T03:26:31.269Z,15.59
2018-05-25T03:28:59.184Z,15.61
2018-05-25T03:31:27.126Z,15.70
2018-05-25T03:33:55.042Z,15.72
2018-05-25T03:36:22.948Z,15.67
2018-05-25T03:38:50.889Z,15.67
2018-05-25T03:41:18.869Z,15.60
2018-05-25T03:43:46.749Z,15.70
2018-05-25T03:46:14.679Z,15.72
2018-05-25T03:48:42.588Z,15.83
2018-05-25T03:51:10.550Z,15.76
2018-05-25T03:53:38.449Z,15.87
2018-05-25T03:56:06.364Z,15.86
2018-05-25T03:58:46.112Z,15.82
2018-05-25T04:01:25.812Z,15.78
2018-05-25T04:03:53.716Z,16.25
2018-05-25T04:06:21.638Z,15.98
2018-05-25T04:08:49.596Z,15.90
2018-05-25T04:11:17.525Z,15.93
2018-05-25T04:13:45.431Z,15.97
2018-05-25T04:16:13.357Z,15.99
2018-05-25T04:18:41.265Z,15.95
2018-05-25T04:21:09.182Z,16.00
2018-05-25T04:23:37.139Z,16.05
2018-05-25T04:26:05.116Z,16.13
2018-05-25T04:28:33.017Z,16.19
2018-05-25T04:31:00.944Z,16.27
2018-05-25T04:33:28.857Z,16.25
2018-05-25T04:35:56.777Z,16.37
2018-05-25T04:38:24.698Z,16.35
2018-05-25T04:40:52.654Z,16.43
2018-05-25T04:43:20.595Z,16.51
2018-05-25T04:45:48.464Z,16.63
2018-05-25T04:48:16.391Z,16.70
2018-05-25T04:50:44.299Z,16.82
2018-05-25T04:53:12.278Z,16.87
2018-05-25T04:55:40.169Z,16.99
2018-05-25T04:58:08.078Z,17.07
2018-05-25T05:00:35.998Z,17.14
2018-05-25T05:03:03.899Z,17.24
2018-05-25T05:05:31.837Z,17.17
2018-05-25T05:07:59.725Z,17.37
2018-05-25T05:10:27.644Z,17.36
2018-05-25T05:12:55.592Z,17.35
2018-05-25T05:15:23.673Z,17.44
2018-05-25T05:17:51.621Z,17.50
2018-05-25T05:20:19.544Z,17.53
2018-05-25T05:22:47.457Z,17.72
2018-05-25T05:25:15.397Z,17.81
2018-05-25T05:27:43.354Z,17.84
2018-05-25T05:30:11.320Z,17.88
2018-05-25T05:32:39.218Z,17.91
2018-05-25T05:35:07.141Z,17.97
2018-05-25T05:37:35.064Z,18.10
2018-05-25T05:40:02.981Z,18.17
2018-05-25T05:42:30.898Z,18.26
2018-05-25T05:44:58.816Z,18.36
2018-05-25T05:47:26.736Z,18.35
2018-05-25T05:49:54.746Z,18.40
2018-05-25T05:52:22.659Z,18.58
2018-05-25T05:54:50.569Z,18.64
2018-05-25T05:57:18.476Z,18.74
2018-05-25T05:59:46.421Z,18.80
2018-05-25T06:02:14.311Z,18.81
2018-05-25T06:04:42.238Z,18.87
2018-05-25T06:07:10.147Z,18.85
2018-05-25T06:09:38.052Z,18.91
2018-05-25T06:12:06.015Z,19.04
2018-05-25T06:14:33.972Z,19.03
2018-05-25T06:17:01.906Z,19.12
2018-05-25T06:19:29.823Z,19.20
2018-05-25T06:21:57.762Z,19.13
2018-05-25T06:24:25.689Z,19.08
2018-05-25T06:26:53.588Z,19.09
2018-05-25T06:29:21.495Z,19.18
2018-05-25T06:31:49.400Z,19.24
2018-05-25T06:34:17.324Z,19.17
2018-05-25T06:36:45.235Z,19.25
2018-05-25T06:39:13.158Z,19.26
2018-05-25T06:41:41.090Z,19.39
2018-05-25T06:44:09.001Z,19.55
2018-05-25T06:46:36.928Z,19.74
2018-05-25T06:49:04.867Z,19.87
2018-05-25T06:51:32.787Z,19.96
2018-05-25T06:54:00.733Z,20.07
2018-05-25T06:56:28.652Z,20.40
2018-05-25T06:58:56.581Z,20.95
2018-05-25T07:01:24.485Z,21.48
2018-05-25T07:03:52.398Z,21.70
2018-05-25T07:06:20.344Z,22.04
2018-05-25T07:08:48.298Z,22.27
2018-05-25T07:11:16.988Z,22.16
2018-05-25T07:13:44.970Z,22.54
2018-05-25T07:16:12.881Z,22.28
2018-05-25T07:18:40.940Z,22.70
2018-05-25T07:21:08.814Z,23.01
2018-05-25T07:23:36.724Z,23.40
2018-05-25T07:26:04.648Z,23.62
2018-05-25T07:28:32.576Z,23.84
2018-05-25T07:31:00.539Z,23.60
2018-05-25T07:33:28.574Z,23.41
2018-05-25T07:35:56.520Z,23.86
2018-05-25T07:38:24.533Z,24.39
2018-05-25T07:40:52.493Z,24.10
2018-05-25T07:43:20.522Z,24.49
2018-05-25T07:45:48.385Z,24.71
2018-05-25T07:48:16.340Z,24.71
2018-05-25T07:50:44.248Z,24.27
2018-05-25T07:53:12.183Z,24.47
2018-05-25T07:55:40.084Z,24.78
2018-05-25T07:58:08.022Z,24.93
2018-05-25T08:00:36.069Z,25.00
2018-05-25T08:03:04.144Z,24.92
2018-05-25T08:05:32.209Z,25.06
2018-05-25T08:08:00.136Z,25.27
2018-05-25T08:10:28.047Z,25.31
2018-05-25T08:12:55.971Z,25.44
2018-05-25T08:15:23.896Z,25.73
2018-05-25T08:17:51.823Z,25.21
2018-05-25T08:20:19.835Z,25.69
2018-05-25T08:22:47.744Z,25.78
2018-05-25T08:25:15.660Z,25.66
2018-05-25T08:27:43.584Z,25.93
2018-05-25T08:30:11.516Z,26.35
2018-05-25T08:32:39.439Z,26.25
2018-05-25T08:35:07.362Z,26.43
2018-05-25T08:37:35.297Z,26.67
2018-05-25T08:40:03.252Z,26.93
2018-05-25T08:42:31.193Z,27.20
2018-05-25T08:44:59.098Z,27.26
2018-05-25T08:47:27.078Z,27.29
2018-05-25T08:49:54.983Z,26.80
2018-05-25T08:52:22.900Z,27.06
2018-05-25T08:54:50.805Z,27.19
2018-05-25T08:57:18.734Z,27.46
2018-05-25T08:59:46.652Z,27.73
2018-05-25T09:02:14.564Z,27.64
2018-05-25T09:04:42.496Z,27.85
2018-05-25T09:07:10.421Z,27.97
2018-05-25T09:09:38.392Z,28.14
2018-05-25T09:12:06.396Z,28.03
2018-05-25T09:14:34.332Z,28.24
2018-05-25T09:17:02.236Z,27.67
2018-05-25T09:19:30.163Z,27.23
2018-05-25T09:21:58.093Z,28.05
2018-05-25T09:24:26.029Z,28.41
2018-05-25T09:26:53.997Z,28.06
2018-05-25T09:29:21.912Z,27.95
2018-05-25T09:31:49.843Z,27.87
2018-05-25T09:34:17.797Z,28.62
2018-05-25T09:36:45.717Z,28.27
2018-05-25T09:39:13.609Z,28.89
2018-05-25T09:41:41.543Z,29.14
2018-05-25T09:44:09.476Z,28.54
2018-05-25T09:46:37.387Z,28.70
2018-05-25T09:49:05.302Z,28.95
2018-05-25T09:51:33.235Z,28.76
2018-05-25T09:54:01.146Z,28.67
2018-05-25T09:56:29.064Z,29.11
2018-05-25T09:58:56.971Z,29.24
2018-05-25T10:01:24.908Z,29.05
2018-05-25T10:03:52.840Z,29.17
2018-05-25T10:06:20.784Z,28.55
2018-05-25T10:08:48.682Z,28.41
2018-05-25T10:11:16.703Z,28.56
2018-05-25T10:13:44.677Z,28.80
2018-05-25T10:16:12.590Z,28.83
2018-05-25T10:18:40.530Z,29.15
2018-05-25T10:21:08.628Z,29.01
2018-05-25T10:23:36.523Z,28.76
2018-05-25T10:26:04.470Z,29.11
2018-05-25T10:28:32.420Z,29.31
2018-05-25T10:31:00.353Z,28.75
2018-05-25T10:33:28.305Z,29.43
2018-05-25T10:35:56.226Z,28.75
2018-05-25T10:38:24.152Z,29.02
2018-05-25T10:40:52.074Z,29.72
2018-05-25T10:43:20.022Z,29.23
2018-05-25T10:45:47.926Z,29.21
2018-05-25T10:48:15.885Z,29.72
2018-05-25T10:50:43.801Z,29.71
2018-05-25T10:53:11.723Z,29.54
2018-05-25T10:55:39.672Z,29.35
2018-05-25T10:58:07.582Z,29.45
2018-05-25T11:00:35.515Z,29.43
2018-05-25T11:03:03.489Z,28.89
2018-05-25T11:05:31.423Z,28.87
2018-05-25T11:07:59.343Z,29.47
2018-05-25T11:10:27.273Z,29.80
2018-05-25T11:12:55.185Z,29.80
2018-05-25T11:15:23.097Z,29.87
2018-05-25T11:17:51.101Z,29.47
2018-05-25T11:20:19.044Z,29.41
2018-05-25T11:22:46.979Z,29.46
2018-05-25T11:25:14.892Z,29.63
2018-05-25T11:27:42.837Z,30.01
2018-05-25T11:30:10.773Z,29.93
2018-05-25T11:32:38.693Z,29.65
2018-05-25T11:35:06.604Z,29.56
2018-05-25T11:37:34.520Z,29.93
2018-05-25T11:40:02.425Z,30.17
2018-05-25T11:42:30.345Z,30.17
2018-05-25T11:44:58.276Z,30.00
2018-05-25T11:47:26.206Z,29.80
2018-05-25T11:49:54.165Z,30.40
2018-05-25T11:52:22.973Z,30.57
2018-05-25T11:54:50.930Z,30.51
2018-05-25T11:57:18.911Z,30.50
2018-05-25T11:59:47.992Z,29.90
2018-05-25T12:02:15.940Z,29.61
2018-05-25T12:04:43.915Z,29.33
2018-05-25T12:07:11.826Z,29.61
2018-05-25T12:09:39.771Z,30.02
2018-05-25T12:12:07.667Z,29.74
2018-05-25T12:14:35.623Z,29.95
2018-05-25T12:17:03.535Z,30.17
2018-05-25T12:19:31.448Z,29.67
2018-05-25T12:21:59.433Z,29.41
2018-05-25T12:24:27.340Z,30.11
2018-05-25T12:26:55.257Z,29.71
2018-05-25T12:29:23.179Z,29.66
2018-05-25T12:31:51.117Z,29.37
2018-05-25T12:34:19.056Z,29.76
2018-05-25T12:36:46.972Z,28.93
2018-05-25T12:39:14.880Z,28.87
2018-05-25T12:41:42.865Z,28.90
2018-05-25T12:44:10.752Z,28.78
2018-05-25T12:46:38.676Z,29.12
2018-05-25T12:49:06.586Z,29.41
2018-05-25T12:51:34.496Z,29.21
2018-05-25T12:54:02.409Z,29.29
2018-05-25T12:56:30.313Z,29.71
2018-05-25T12:58:58.251Z,29.31
2018-05-25T13:01:26.171Z,29.06
2018-05-25T13:03:54.191Z,29.22
2018-05-25T13:06:22.094Z,29.57
2018-05-25T13:08:50.015Z,29.45
2018-05-25T13:11:17.923Z,29.63
2018-05-25T13:13:45.819Z,29.38
2018-05-25T13:16:13.752Z,29.14
2018-05-25T13:18:41.726Z,29.04
2018-05-25T13:21:09.643Z,28.87
2018-05-25T13:23:37.559Z,29.13
2018-05-25T13:26:05.484Z,28.79
2018-05-25T13:28:33.398Z,28.64
2018-05-25T13:31:01.353Z,28.84
2018-05-25T13:33:29.267Z,28.69
2018-05-25T13:35:57.279Z,28.61
2018-05-25T13:38:25.193Z,28.78
2018-05-25T13:40:53.155Z,28.54
2018-05-25T13:43:21.089Z,28.63
2018-05-25T13:45:49.022Z,28.38
2018-05-25T13:48:16.935Z,28.20
2018-05-25T13:50:44.860Z,28.75
2018-05-25T13:53:12.768Z,27.95
2018-05-25T13:55:40.691Z,28.32
2018-05-25T13:58:08.587Z,27.82
2018-05-25T14:00:36.495Z,27.73
2018-05-25T14:03:04.400Z,28.02
2018-05-25T14:05:32.323Z,27.97
2018-05-25T14:08:00.262Z,27.99
2018-05-25T14:10:28.178Z,27.75
2018-05-25T14:12:56.123Z,27.49
2018-05-25T14:15:24.051Z,27.65
2018-05-25T14:17:51.961Z,28.04
2018-05-25T14:20:19.886Z,27.68
2018-05-25T14:22:48.505Z,27.42
2018-05-25T14:25:16.480Z,27.40
2018-05-25T14:27:44.393Z,27.28
2018-05-25T14:30:12.297Z,27.28
2018-05-25T14:32:40.228Z,27.12
2018-05-25T14:35:08.202Z,26.75
2018-05-25T14:37:36.136Z,26.36
2018-05-25T14:40:04.038Z,26.34
2018-05-25T14:42:31.950Z,26.70
2018-05-25T14:44:59.872Z,26.22
2018-05-25T14:47:27.801Z,26.31
2018-05-25T14:49:55.730Z,26.10
2018-05-25T14:52:23.635Z,26.06
2018-05-25T14:54:51.573Z,25.91
2018-05-25T14:57:19.485Z,25.69
2018-05-25T14:59:47.392Z,25.35
2018-05-25T15:02:15.366Z,25.07
2018-05-25T15:04:43.232Z,24.92
2018-05-25T15:07:11.154Z,24.62
2018-05-25T15:09:39.109Z,24.58
2018-05-25T15:12:06.966Z,24.73
2018-05-25T15:14:34.868Z,24.79
2018-05-25T15:17:02.795Z,24.73
2018-05-25T15:19:30.695Z,24.41
2018-05-25T15:21:58.639Z,24.53
2018-05-25T15:24:26.547Z,24.71
2018-05-25T15:26:54.484Z,24.43
2018-05-25T15:29:22.410Z,24.35
2018-05-25T15:31:50.362Z,24.50
2018-05-25T15:34:18.229Z,24.76
2018-05-25T15:36:46.151Z,24.36
2018-05-25T15:39:14.054Z,24.43
2018-05-25T15:41:41.996Z,24.32
2018-05-25T15:44:09.994Z,24.48
2018-05-25T15:46:37.950Z,24.46
2018-05-25T15:49:05.862Z,24.51
2018-05-25T15:51:33.835Z,24.39
2018-05-25T15:54:01.846Z,24.31
2018-05-25T15:56:29.895Z,24.39
2018-05-25T15:58:57.786Z,24.21
2018-05-25T16:01:25.719Z,24.16
2018-05-25T16:03:53.634Z,24.27
2018-05-25T16:06:21.557Z,24.26
2018-05-25T16:08:49.542Z,24.29
2018-05-25T16:11:18.380Z,24.26
2018-05-25T16:13:46.410Z,24.05
2018-05-25T16:16:14.404Z,23.81
2018-05-25T16:18:42.316Z,23.96
2018-05-25T16:21:10.265Z,23.88
2018-05-25T16:23:38.178Z,23.68
2018-05-25T16:26:06.124Z,23.53
2018-05-25T16:28:34.048Z,23.26
2018-05-25T16:31:01.987Z,23.27
2018-05-25T16:33:29.897Z,23.47
2018-05-25T16:35:58.268Z,23.36
2018-05-25T16:38:26.352Z,23.22
2018-05-25T16:40:54.263Z,23.16
2018-05-25T16:43:22.181Z,23.05
2018-05-25T16:45:50.131Z,23.02
2018-05-25T16:48:18.045Z,23.22
2018-05-25T16:50:45.993Z,22.97
2018-05-25T16:53:13.939Z,22.84
2018-05-25T16:55:41.869Z,22.82
2018-05-25T16:58:10.216Z,22.78
2018-05-25T17:00:38.152Z,22.77
2018-05-25T17:03:06.091Z,22.85
2018-05-25T17:05:34.040Z,23.01
2018-05-25T17:08:02.475Z,22.86
2018-05-25T17:10:30.402Z,22.87
2018-05-25T17:12:58.328Z,22.86
2018-05-25T17:15:26.244Z,22.64
2018-05-25T17:17:54.154Z,22.77
2018-05-25T17:20:22.089Z,22.77
2018-05-25T17:22:49.987Z,22.71
2018-05-25T17:25:17.944Z,22.34
2018-05-25T17:27:45.880Z,22.47
2018-05-25T17:30:13.834Z,22.35
2018-05-25T17:32:41.743Z,22.24
2018-05-25T17:35:09.657Z,22.44
2018-05-25T17:37:37.579Z,22.31
2018-05-25T17:40:05.498Z,22.34
2018-05-25T17:42:33.444Z,22.34
2018-05-25T17:45:01.374Z,22.09
2018-05-25T17:47:29.347Z,21.92
2018-05-25T17:49:57.311Z,22.09
2018-05-25T17:52:25.730Z,22.16
2018-05-25T17:54:53.656Z,21.84
2018-05-25T17:57:21.591Z,21.70
2018-05-25T17:59:49.549Z,21.70
2018-05-25T18:02:17.510Z,21.78
2018-05-25T18:04:45.428Z,22.03
2018-05-25T18:07:13.345Z,21.43
2018-05-25T18:09:41.270Z,21.40
2018-05-25T18:12:09.190Z,21.57
2018-05-25T18:14:37.108Z,21.53
2018-05-25T18:17:05.055Z,21.48
2018-05-25T18:19:33.081Z,21.42
2018-05-25T18:22:01.020Z,21.54
2018-05-25T18:24:28.947Z,21.42
2018-05-25T18:26:56.875Z,21.40
2018-05-25T18:29:24.826Z,21.18
2018-05-25T18:31:52.882Z,21.31
2018-05-25T18:34:20.791Z,21.08
2018-05-25T18:36:48.715Z,20.92
2018-05-25T18:39:16.964Z,20.90
2018-05-25T18:41:44.867Z,20.87
2018-05-25T18:44:12.816Z,20.93
2018-05-25T18:46:40.729Z,20.88
2018-05-25T18:49:08.644Z,21.00
2018-05-25T18:51:36.563Z,20.89
2018-05-25T18:54:16.334Z,20.94
2018-05-25T18:56:44.996Z,20.69
2018-05-25T18:59:13.040Z,20.33
2018-05-25T19:01:40.945Z,20.36
2018-05-25T19:04:08.860Z,20.33
2018-05-25T19:06:36.806Z,20.49
2018-05-25T19:09:05.537Z,20.44
2018-05-25T19:11:33.464Z,20.54
2018-05-25T19:14:01.376Z,20.40
2018-05-25T19:16:29.343Z,20.48
2018-05-25T19:18:57.249Z,20.45
2018-05-25T19:21:25.146Z,20.36
2018-05-25T19:23:53.922Z,20.36
2018-05-25T19:26:21.840Z,20.43
2018-05-25T19:28:49.770Z,20.56
2018-05-25T19:31:17.666Z,20.36
2018-05-25T19:33:45.587Z,20.21
2018-05-25T19:36:13.505Z,20.20
2018-05-25T19:38:41.468Z,20.10
2018-05-25T19:41:09.333Z,19.67
2018-05-25T19:43:37.246Z,19.76
2018-05-25T19:46:05.150Z,19.57
2018-05-25T19:48:33.084Z,19.38
2018-05-25T19:51:00.983Z,19.30
2018-05-25T19:53:28.917Z,19.36
2018-05-25T19:55:56.819Z,19.23
2018-05-25T19:58:24.727Z,19.26
2018-05-25T20:00:52.660Z,19.10
2018-05-25T20:03:20.565Z,19.17
2018-05-25T20:05:48.493Z,19.24
2018-05-25T20:08:16.409Z,19.26
2018-05-25T20:10:44.737Z,19.36
2018-05-25T20:13:12.612Z,19.33
2018-05-25T20:15:40.515Z,19.35
2018-05-25T20:18:08.427Z,18.89
2018-05-25T20:20:36.360Z,19.21
2018-05-25T20:23:04.304Z,19.20
2018-05-25T20:25:32.225Z,19.44
2018-05-25T20:28:00.148Z,19.33
2018-05-25T20:30:28.059Z,19.10
2018-05-25T20:32:55.993Z,18.55
2018-05-25T20:35:23.953Z,18.23
2018-05-25T20:37:51.878Z,18.44
2018-05-25T20:40:19.794Z,18.59
2018-05-25T20:42:47.786Z,18.53
2018-05-25T20:45:15.678Z,18.61
2018-05-25T20:47:43.632Z,18.66
2018-05-25T20:50:11.553Z,18.81
2018-05-25T20:52:39.481Z,17.88
2018-05-25T20:55:07.406Z,17.92
2018-05-25T20:57:35.335Z,17.91
2018-05-25T21:00:03.379Z,17.75
2018-05-25T21:02:31.303Z,18.07
2018-05-25T21:04:59.228Z,17.91
2018-05-25T21:07:27.158Z,17.63
2018-05-25T21:09:55.086Z,17.38
2018-05-25T21:12:23.079Z,17.55
2018-05-25T21:14:50.950Z,17.34
2018-05-25T21:17:18.957Z,17.40
2018-05-25T21:19:46.923Z,17.22
2018-05-25T21:22:14.840Z,17.32
2018-05-25T21:24:42.805Z,17.30
2018-05-25T21:27:10.689Z,17.34
2018-05-25T21:29:38.612Z,17.73
2018-05-25T21:32:06.523Z,17.48
2018-05-25T21:34:34.430Z,17.38
2018-05-25T21:37:02.359Z,17.30
2018-05-25T21:39:30.284Z,17.70
2018-05-25T21:41:58.228Z,17.94
2018-05-25T21:44:26.148Z,17.69
2018-05-25T21:46:54.063Z,17.41
2018-05-25T21:49:21.988Z,17.02
2018-05-25T21:51:51.745Z,17.07
2018-05-25T21:54:19.643Z,17.07
2018-05-25T21:56:47.575Z,16.87
2018-05-25T21:59:15.505Z,17.13
2018-05-25T22:01:43.864Z,17.68
2018-05-25T22:04:11.786Z,17.62
2018-05-25T22:06:39.713Z,17.40
2018-05-25T22:09:07.622Z,17.37
2018-05-25T22:11:35.556Z,17.36
2018-05-25T22:14:03.488Z,17.44
2018-05-25T22:16:31.467Z,17.60
2018-05-25T22:18:59.327Z,17.49
2018-05-25T22:21:27.255Z,17.29
2018-05-25T22:23:55.188Z,16.89
2018-05-25T22:26:23.112Z,17.05
2018-05-25T22:28:51.021Z,17.23
2018-05-25T22:31:18.940Z,16.70
2018-05-25T22:33:46.889Z,16.54
2018-05-25T22:36:14.825Z,16.41
2018-05-25T22:38:42.728Z,16.35
2018-05-25T22:41:10.649Z,16.17
2018-05-25T22:43:50.321Z,16.11
2018-05-25T22:46:29.915Z,16.05
2018-05-25T22:49:09.631Z,16.12
2018-05-25T22:51:49.235Z,16.08
2018-05-25T22:54:31.263Z,16.01
2018-05-25T22:56:59.201Z,15.99
2018-05-25T22:59:27.109Z,15.95
2018-05-25T23:01:55.067Z,15.78
2018-05-25T23:04:22.951Z,15.92
2018-05-25T23:06:51.185Z,15.90
2018-05-25T23:09:19.096Z,15.93
2018-05-25T23:11:47.155Z,15.87
2018-05-25T23:14:15.061Z,15.72
2018-05-25T23:16:43.023Z,15.71
2018-05-25T23:19:10.959Z,15.62
2018-05-25T23:21:38.891Z,15.46
2018-05-25T23:24:06.811Z,15.54
2018-05-25T23:26:34.717Z,15.46
2018-05-25T23:29:02.671Z,15.51
2018-05-25T23:31:30.614Z,15.54
2018-05-25T23:33:58.532Z,15.52
2018-05-25T23:36:26.452Z,15.39
2018-05-25T23:38:54.396Z,15.41
2018-05-25T23:41:22.317Z,15.41
2018-05-25T23:43:50.279Z,15.42
2018-05-25T23:46:18.213Z,15.40
2018-05-25T23:48:46.139Z,15.17
2018-05-25T23:51:14.088Z,15.10
2018-05-25T23:53:42.059Z,15.25
2018-05-25T23:56:09.947Z,15.24
2018-05-25T23:58:38.324Z,15.07
